createdAt,value
2019-02-12T00:00:15.884Z,68.42
2019-02-12T00:01:23.927Z,68.23
2019-02-12T00:02:31.959Z,68.42
2019-02-12T00:03:40.034Z,69.56
2019-02-12T00:04:48.068Z,68.80
2019-02-12T00:05:56.136Z,66.69
2019-02-12T00:07:04.189Z,64.98
2019-02-12T00:08:12.226Z,63.95
2019-02-12T00:09:20.298Z,60.64
2019-02-12T00:10:28.357Z,57.34
2019-02-12T00:11:36.429Z,57.24
2019-02-12T00:12:44.472Z,58.47
2019-02-12T00:13:52.516Z,57.81
2019-02-12T00:15:00.590Z,58.75
2019-02-12T00:16:08.674Z,58.09
2019-02-12T00:17:16.682Z,58.94
2019-02-12T00:18:24.737Z,59.13
2019-02-12T00:19:32.788Z,58.94
2019-02-12T00:20:40.849Z,56.58
2019-02-12T00:21:48.904Z,55.26
2019-02-12T00:22:56.956Z,55.16
2019-02-12T00:24:05.005Z,54.88
2019-02-12T00:25:13.070Z,54.50
2019-02-12T00:26:21.132Z,55.16
2019-02-12T00:27:29.200Z,56.01
2019-02-12T00:28:37.217Z,55.82
2019-02-12T00:29:45.275Z,56.58
2019-02-12T00:30:53.352Z,55.07
2019-02-12T00:32:01.379Z,53.27
2019-02-12T00:33:09.459Z,49.78
2019-02-12T00:34:17.508Z,49.87
2019-02-12T00:35:25.558Z,47.61
2019-02-12T00:36:33.620Z,47.72
2019-02-12T00:37:41.683Z,46.59
2019-02-12T00:38:49.728Z,47.34
2019-02-12T00:39:57.783Z,46.88
2019-02-12T00:41:05.818Z,48.20
2019-02-12T00:42:14.376Z,47.72
2019-02-12T00:43:21.923Z,48.95
2019-02-12T00:44:29.990Z,51.32
2019-02-12T00:45:38.048Z,49.62
2019-02-12T00:46:46.112Z,49.90
2019-02-12T00:47:54.151Z,50.75
2019-02-12T00:49:02.840Z,51.98
2019-02-12T00:50:10.269Z,53.49
2019-02-12T00:51:18.311Z,53.68
2019-02-12T00:52:26.417Z,54.81
2019-02-12T00:53:34.502Z,55.57
2019-02-12T00:54:42.488Z,56.04
2019-02-12T00:55:50.532Z,57.37
2019-02-12T00:56:58.597Z,56.13
2019-02-12T00:58:06.658Z,56.70
2019-02-12T00:59:14.719Z,57.46
2019-02-12T01:00:22.756Z,57.37
2019-02-12T01:01:31.078Z,57.18
2019-02-12T01:02:38.867Z,57.55
2019-02-12T01:03:46.931Z,56.70
2019-02-12T01:04:54.984Z,55.57
2019-02-12T01:06:03.043Z,55.10
2019-02-12T01:07:11.088Z,54.06
2019-02-12T01:08:19.182Z,54.93
2019-02-12T01:09:27.206Z,53.99
2019-02-12T01:10:35.252Z,54.72
2019-02-12T01:11:43.308Z,54.18
2019-02-12T01:12:51.354Z,54.18
2019-02-12T01:13:59.429Z,54.27
2019-02-12T01:15:07.469Z,55.03
2019-02-12T01:16:15.536Z,55.03
2019-02-12T01:17:23.578Z,55.03
2019-02-12T01:18:31.615Z,55.50
2019-02-12T01:19:39.799Z,55.22
2019-02-12T01:20:47.758Z,55.98
2019-02-12T01:21:55.821Z,58.06
2019-02-12T01:23:03.852Z,57.01
2019-02-12T01:24:11.907Z,57.77
2019-02-12T01:25:19.990Z,59.28
2019-02-12T01:26:28.015Z,59.38
2019-02-12T01:27:36.080Z,59.19
2019-02-12T01:28:44.142Z,58.53
2019-02-12T01:29:52.171Z,59.19
2019-02-12T01:31:00.254Z,57.96
2019-02-12T01:32:08.307Z,56.07
2019-02-12T01:33:16.357Z,55.60
2019-02-12T01:34:24.422Z,56.16
2019-02-12T01:35:32.460Z,56.26
2019-02-12T01:36:40.523Z,57.68
2019-02-12T01:37:48.581Z,56.63
2019-02-12T01:38:56.625Z,58.53
2019-02-12T01:40:04.686Z,56.63
2019-02-12T01:41:12.749Z,57.30
2019-02-12T01:42:20.785Z,60.99
2019-02-12T01:43:28.858Z,62.02
2019-02-12T01:44:36.905Z,61.49
2019-02-12T01:45:44.980Z,61.77
2019-02-12T01:46:53.059Z,61.36
2019-02-12T01:48:01.106Z,61.58
2019-02-12T01:49:09.127Z,61.58
2019-02-12T01:50:17.173Z,61.49
2019-02-12T01:51:25.255Z,64.14
2019-02-12T01:52:33.286Z,63.01
2019-02-12T01:53:41.346Z,62.25
2019-02-12T01:54:49.416Z,63.20
2019-02-12T01:55:57.471Z,63.95
2019-02-12T01:57:05.542Z,62.91
2019-02-12T01:58:13.580Z,66.31
2019-02-12T01:59:21.614Z,65.75
2019-02-12T02:00:29.691Z,63.57
2019-02-12T02:01:37.735Z,64.14
2019-02-12T02:02:45.803Z,64.90
2019-02-12T02:03:53.864Z,64.14
2019-02-12T02:05:01.887Z,64.14
2019-02-12T02:06:09.971Z,64.23
2019-02-12T02:07:18.027Z,65.09
2019-02-12T02:08:26.076Z,66.13
2019-02-12T02:09:34.136Z,67.36
2019-02-12T02:10:42.166Z,68.96
2019-02-12T02:11:50.255Z,70.29
2019-02-12T02:12:58.280Z,70.95
2019-02-12T02:14:06.359Z,70.95
2019-02-12T02:15:14.446Z,68.68
2019-02-12T02:16:22.466Z,68.49
2019-02-12T02:17:30.524Z,68.59
2019-02-12T02:18:38.583Z,68.49
2019-02-12T02:19:46.642Z,71.52
2019-02-12T02:20:54.683Z,72.47
2019-02-12T02:22:02.745Z,75.12
2019-02-12T02:23:10.789Z,74.17
2019-02-12T02:24:18.871Z,73.13
2019-02-12T02:25:26.917Z,74.07
2019-02-12T02:26:34.963Z,72.66
2019-02-12T02:27:43.042Z,75.31
2019-02-12T02:28:51.093Z,74.74
2019-02-12T02:29:59.140Z,77.10
2019-02-12T02:31:07.187Z,77.10
2019-02-12T02:32:15.254Z,76.53
2019-02-12T02:33:23.299Z,76.72
2019-02-12T02:34:31.350Z,76.91
2019-02-12T02:35:39.411Z,77.29
2019-02-12T02:36:47.483Z,78.33
2019-02-12T02:37:55.553Z,77.48
2019-02-12T02:39:03.586Z,76.63
2019-02-12T02:40:11.667Z,74.64
2019-02-12T02:41:19.695Z,75.21
2019-02-12T02:42:27.756Z,75.21
2019-02-12T02:43:35.810Z,75.87
2019-02-12T02:44:43.861Z,72.75
2019-02-12T02:45:51.902Z,70.95
2019-02-12T02:46:59.987Z,71.90
2019-02-12T02:48:08.036Z,70.67
2019-02-12T02:49:16.092Z,73.50
2019-02-12T02:50:24.160Z,70.57
2019-02-12T02:51:32.224Z,70.20
2019-02-12T02:52:40.253Z,71.33
2019-02-12T02:53:48.318Z,70.39
2019-02-12T02:54:56.362Z,70.10
2019-02-12T02:56:04.420Z,71.04
2019-02-12T02:57:12.476Z,72.09
2019-02-12T02:58:20.542Z,72.37
2019-02-12T02:59:28.596Z,72.28
2019-02-12T03:00:36.648Z,71.80
2019-02-12T03:01:44.697Z,72.56
2019-02-12T03:02:52.761Z,72.05
2019-02-12T03:04:00.829Z,71.86
2019-02-12T03:05:08.868Z,71.30
2019-02-12T03:06:16.938Z,72.99
2019-02-12T03:07:24.975Z,74.13
2019-02-12T03:08:33.044Z,74.22
2019-02-12T03:09:41.107Z,74.51
2019-02-12T03:10:49.149Z,74.98
2019-02-12T03:11:57.208Z,74.32
2019-02-12T03:13:05.253Z,72.05
2019-02-12T03:14:13.320Z,70.35
2019-02-12T03:15:21.368Z,69.78
2019-02-12T03:16:29.423Z,71.58
2019-02-12T03:17:37.491Z,71.67
2019-02-12T03:18:45.551Z,72.71
2019-02-12T03:19:53.605Z,71.86
2019-02-12T03:21:01.644Z,72.99
2019-02-12T03:22:09.697Z,73.75
2019-02-12T03:23:17.769Z,73.14
2019-02-12T03:24:25.829Z,71.67
2019-02-12T03:25:33.899Z,71.07
2019-02-12T03:26:42.005Z,69.49
2019-02-12T03:27:49.988Z,69.65
2019-02-12T03:28:58.045Z,68.08
2019-02-12T03:30:06.106Z,64.48
2019-02-12T03:31:14.164Z,61.65
2019-02-12T03:32:22.179Z,62.21
2019-02-12T03:33:30.268Z,65.05
2019-02-12T03:34:38.311Z,62.88
2019-02-12T03:35:46.406Z,61.27
2019-02-12T03:36:54.423Z,58.91
2019-02-12T03:38:02.474Z,57.96
2019-02-12T03:39:10.543Z,58.44
2019-02-12T03:40:18.600Z,57.68
2019-02-12T03:41:26.655Z,58.06
2019-02-12T03:42:34.699Z,57.11
2019-02-12T03:43:42.760Z,56.92
2019-02-12T03:44:50.802Z,57.96
2019-02-12T03:45:58.899Z,57.77
2019-02-12T03:47:06.924Z,58.81
2019-02-12T03:48:14.992Z,57.58
2019-02-12T03:49:23.038Z,57.87
2019-02-12T03:50:31.097Z,59.00
2019-02-12T03:51:39.142Z,58.53
2019-02-12T03:52:47.212Z,58.15
2019-02-12T03:53:55.273Z,59.19
2019-02-12T03:55:03.311Z,61.55
2019-02-12T03:56:11.351Z,61.08
2019-02-12T03:57:19.441Z,60.42
2019-02-12T03:58:27.482Z,59.57
2019-02-12T03:59:35.541Z,59.09
2019-02-12T04:00:43.595Z,61.08
2019-02-12T04:01:51.651Z,60.33
2019-02-12T04:02:59.708Z,61.36
2019-02-12T04:04:07.764Z,60.14
2019-02-12T04:05:15.822Z,60.42
2019-02-12T04:06:23.865Z,59.57
2019-02-12T04:07:31.909Z,58.34
2019-02-12T04:08:39.977Z,57.68
2019-02-12T04:09:48.047Z,57.30
2019-02-12T04:10:56.082Z,57.49
2019-02-12T04:12:04.193Z,58.53
2019-02-12T04:13:12.201Z,58.62
2019-02-12T04:14:20.250Z,58.06
2019-02-12T04:15:28.316Z,57.96
2019-02-12T04:16:36.373Z,58.91
2019-02-12T04:17:44.436Z,58.34
2019-02-12T04:18:52.489Z,59.00
2019-02-12T04:20:00.626Z,58.06
2019-02-12T04:21:08.592Z,57.77
2019-02-12T04:22:22.408Z,57.39
2019-02-12T04:23:24.699Z,57.49
2019-02-12T04:24:32.769Z,57.11
2019-02-12T04:25:40.815Z,57.01
2019-02-12T04:26:48.966Z,57.01
2019-02-12T04:27:56.935Z,56.63
2019-02-12T04:29:04.998Z,57.39
2019-02-12T04:30:13.050Z,59.47
2019-02-12T04:31:21.133Z,58.53
2019-02-12T04:32:29.161Z,57.90
2019-02-12T04:33:37.209Z,57.68
2019-02-12T04:34:45.283Z,57.90
2019-02-12T04:35:53.323Z,56.48
2019-02-12T04:37:01.364Z,54.96
2019-02-12T04:38:09.442Z,54.49
2019-02-12T04:39:17.473Z,54.49
2019-02-12T04:40:25.550Z,55.44
2019-02-12T04:41:33.625Z,58.65
2019-02-12T04:42:41.656Z,59.41
2019-02-12T04:43:49.712Z,58.94
2019-02-12T04:44:57.759Z,59.41
2019-02-12T04:46:05.829Z,61.30
2019-02-12T04:47:13.882Z,62.53
2019-02-12T04:48:21.916Z,65.28
2019-02-12T04:49:30.003Z,67.45
2019-02-12T04:50:38.046Z,64.90
2019-02-12T04:51:46.111Z,61.40
2019-02-12T04:52:54.166Z,61.58
2019-02-12T04:54:02.209Z,60.45
2019-02-12T04:55:10.269Z,58.47
2019-02-12T04:56:18.328Z,58.28
2019-02-12T04:57:26.383Z,58.28
2019-02-12T04:58:34.473Z,56.29
2019-02-12T04:59:42.496Z,58.47
2019-02-12T05:00:50.556Z,60.64
2019-02-12T05:01:58.614Z,67.55
2019-02-12T05:03:06.648Z,67.07
2019-02-12T05:04:14.756Z,63.95
2019-02-12T05:05:22.819Z,62.91
2019-02-12T05:06:30.856Z,63.20
2019-02-12T05:07:38.882Z,64.42
2019-02-12T05:08:46.939Z,64.80
2019-02-12T05:09:54.993Z,65.18
2019-02-12T05:11:03.057Z,66.03
2019-02-12T05:12:11.114Z,66.41
2019-02-12T05:13:19.171Z,66.13
2019-02-12T05:14:27.226Z,67.74
2019-02-12T05:15:35.294Z,68.77
2019-02-12T05:16:43.329Z,64.80
2019-02-12T05:17:51.380Z,63.48
2019-02-12T05:18:59.453Z,64.90
2019-02-12T05:20:07.509Z,62.82
2019-02-12T05:21:15.569Z,63.39
2019-02-12T05:22:23.754Z,63.10
2019-02-12T05:23:31.753Z,63.95
2019-02-12T05:24:39.722Z,64.04
2019-02-12T05:25:47.794Z,64.90
2019-02-12T05:26:55.821Z,65.18
2019-02-12T05:28:03.891Z,63.95
2019-02-12T05:29:11.994Z,63.76
2019-02-12T05:30:21.084Z,64.33
2019-02-12T05:31:28.074Z,67.26
2019-02-12T05:32:36.121Z,66.88
2019-02-12T05:33:44.183Z,66.22
2019-02-12T05:34:52.203Z,66.31
2019-02-12T05:36:00.272Z,64.04
2019-02-12T05:37:08.337Z,66.50
2019-02-12T05:38:16.393Z,66.98
2019-02-12T05:39:24.446Z,67.17
2019-02-12T05:40:32.495Z,66.69
2019-02-12T05:41:40.550Z,66.69
2019-02-12T05:42:48.716Z,66.22
2019-02-12T05:43:56.684Z,67.55
2019-02-12T05:45:04.734Z,69.06
2019-02-12T05:46:12.803Z,68.49
2019-02-12T05:47:20.972Z,69.15
2019-02-12T05:48:28.901Z,69.53
2019-02-12T05:49:36.979Z,71.33
2019-02-12T05:50:44.985Z,70.10
2019-02-12T05:51:53.064Z,69.82
2019-02-12T05:53:01.126Z,71.42
2019-02-12T05:54:09.177Z,71.14
2019-02-12T05:55:17.256Z,71.71
2019-02-12T05:56:25.291Z,70.10
2019-02-12T05:57:33.349Z,75.68
2019-02-12T05:58:41.387Z,77.39
2019-02-12T05:59:49.462Z,76.44
2019-02-12T06:00:57.505Z,75.87
2019-02-12T06:02:05.577Z,76.44
2019-02-12T06:03:13.626Z,80.51
2019-02-12T06:04:21.665Z,81.26
2019-02-12T06:05:29.742Z,80.88
2019-02-12T06:06:37.792Z,80.04
2019-02-12T06:07:45.874Z,84.58
2019-02-12T06:08:53.932Z,82.21
2019-02-12T06:10:01.940Z,83.25
2019-02-12T06:11:10.007Z,82.40
2019-02-12T06:12:18.096Z,82.40
2019-02-12T06:13:26.140Z,80.69
2019-02-12T06:14:34.192Z,81.36
2019-02-12T06:15:42.211Z,81.17
2019-02-12T06:16:50.285Z,80.60
2019-02-12T06:17:58.361Z,82.40
2019-02-12T06:19:06.407Z,82.59
2019-02-12T06:20:14.470Z,83.72
2019-02-12T06:21:22.511Z,81.17
2019-02-12T06:22:30.580Z,80.98
2019-02-12T06:23:38.633Z,82.97
2019-02-12T06:24:46.683Z,81.83
2019-02-12T06:25:54.782Z,81.07
2019-02-12T06:27:02.812Z,82.21
2019-02-12T06:28:10.883Z,82.59
2019-02-12T06:29:18.905Z,81.45
2019-02-12T06:30:26.993Z,82.12
2019-02-12T06:31:35.075Z,81.36
2019-02-12T06:32:43.094Z,81.55
2019-02-12T06:33:51.141Z,82.59
2019-02-12T06:34:59.193Z,82.97
2019-02-12T06:36:07.272Z,81.45
2019-02-12T06:37:15.310Z,82.87
2019-02-12T06:38:23.389Z,83.91
2019-02-12T06:39:31.406Z,83.49
2019-02-12T06:40:39.494Z,84.25
2019-02-12T06:41:47.529Z,83.40
2019-02-12T06:42:55.637Z,83.68
2019-02-12T06:44:03.637Z,83.68
2019-02-12T06:45:11.766Z,83.78
2019-02-12T06:46:19.768Z,83.68
2019-02-12T06:47:27.813Z,83.21
2019-02-12T06:48:35.871Z,83.02
2019-02-12T06:49:43.926Z,79.99
2019-02-12T06:50:51.964Z,78.29
2019-02-12T06:52:00.052Z,80.75
2019-02-12T06:53:12.452Z,78.39
2019-02-12T06:54:16.150Z,79.52
2019-02-12T06:55:24.261Z,77.91
2019-02-12T06:56:32.253Z,79.33
2019-02-12T06:57:40.301Z,79.33
2019-02-12T06:58:48.364Z,79.14
2019-02-12T06:59:56.402Z,79.14
2019-02-12T07:01:04.482Z,79.29
2019-02-12T07:02:12.547Z,81.22
2019-02-12T07:03:20.602Z,82.22
2019-02-12T07:04:28.646Z,81.79
2019-02-12T07:05:36.698Z,83.54
2019-02-12T07:06:44.757Z,84.96
2019-02-12T07:07:52.803Z,83.36
2019-02-12T07:09:00.878Z,82.41
2019-02-12T07:10:08.945Z,80.71
2019-02-12T07:11:16.985Z,80.33
2019-02-12T07:12:25.039Z,82.50
2019-02-12T07:13:33.105Z,83.36
2019-02-12T07:14:41.143Z,82.22
2019-02-12T07:15:49.237Z,82.22
2019-02-12T07:16:57.264Z,84.68
2019-02-12T07:18:05.306Z,82.79
2019-02-12T07:19:13.368Z,83.54
2019-02-12T07:20:21.456Z,82.60
2019-02-12T07:21:29.492Z,83.73
2019-02-12T07:22:37.557Z,83.54
2019-02-12T07:23:45.632Z,83.17
2019-02-12T07:24:53.856Z,84.11
2019-02-12T07:26:02.183Z,85.72
2019-02-12T07:27:09.772Z,84.96
2019-02-12T07:28:17.816Z,88.84
2019-02-12T07:29:25.873Z,89.12
2019-02-12T07:30:33.903Z,90.73
2019-02-12T07:31:41.974Z,88.84
2019-02-12T07:32:50.016Z,86.76
2019-02-12T07:33:58.084Z,85.15
2019-02-12T07:35:06.122Z,84.30
2019-02-12T07:36:14.192Z,91.20
2019-02-12T07:37:22.274Z,88.46
2019-02-12T07:38:30.309Z,85.43
2019-02-12T07:39:38.383Z,87.23
2019-02-12T07:40:46.417Z,86.57
2019-02-12T07:41:54.520Z,84.68
2019-02-12T07:43:02.547Z,82.88
2019-02-12T07:44:10.582Z,84.58
2019-02-12T07:45:18.652Z,83.83
2019-02-12T07:46:26.693Z,80.05
2019-02-12T07:47:34.741Z,77.78
2019-02-12T07:48:42.803Z,81.18
2019-02-12T07:49:50.905Z,77.59
2019-02-12T07:50:58.905Z,72.49
2019-02-12T07:52:06.983Z,69.27
2019-02-12T07:53:15.051Z,70.21
2019-02-12T07:54:23.097Z,68.04
2019-02-12T07:55:31.139Z,71.64
2019-02-12T07:56:39.190Z,65.30
2019-02-12T07:57:47.263Z,57.74
2019-02-12T07:58:55.296Z,53.87
2019-02-12T08:00:03.385Z,54.81
2019-02-12T08:01:11.399Z,57.46
2019-02-12T08:02:19.468Z,57.37
2019-02-12T08:03:27.521Z,55.88
2019-02-12T08:04:35.594Z,55.22
2019-02-12T08:05:43.652Z,54.46
2019-02-12T08:06:51.687Z,53.42
2019-02-12T08:07:59.752Z,52.38
2019-02-12T08:09:07.820Z,51.62
2019-02-12T08:10:15.886Z,50.49
2019-02-12T08:11:23.916Z,47.85
2019-02-12T08:12:31.958Z,48.41
2019-02-12T08:13:40.052Z,50.68
2019-02-12T08:14:48.092Z,52.57
2019-02-12T08:15:56.143Z,52.57
2019-02-12T08:17:04.200Z,52.95
2019-02-12T08:18:12.237Z,52.38
2019-02-12T08:19:20.299Z,52.03
2019-02-12T08:20:28.393Z,52.22
2019-02-12T08:21:36.414Z,52.03
2019-02-12T08:22:44.489Z,50.61
2019-02-12T08:23:52.589Z,52.69
2019-02-12T08:25:00.618Z,54.68
2019-02-12T08:26:08.738Z,59.31
2019-02-12T08:27:16.689Z,57.23
2019-02-12T08:28:24.773Z,64.64
2019-02-12T08:29:32.809Z,65.50
2019-02-12T08:30:40.888Z,66.25
2019-02-12T08:31:48.936Z,69.47
2019-02-12T08:32:56.995Z,80.36
2019-02-12T08:34:05.062Z,83.20
2019-02-12T08:35:13.108Z,78.75
2019-02-12T08:36:21.167Z,80.36
2019-02-12T08:37:29.209Z,82.25
2019-02-12T08:38:37.283Z,87.17
2019-02-12T08:39:45.383Z,84.42
2019-02-12T08:40:53.393Z,82.82
2019-02-12T08:42:01.454Z,83.81
2019-02-12T08:43:09.516Z,85.51
2019-02-12T08:44:17.577Z,89.77
2019-02-12T08:45:25.652Z,90.34
2019-02-12T08:46:33.688Z,93.27
2019-02-12T08:47:41.740Z,93.27
2019-02-12T08:48:49.798Z,87.12
2019-02-12T08:49:57.894Z,85.80
2019-02-12T08:51:05.921Z,86.55
2019-02-12T08:52:13.986Z,83.90
2019-02-12T08:53:22.015Z,92.99
2019-02-12T08:54:30.107Z,92.52
2019-02-12T08:55:38.186Z,99.99
2019-02-12T08:56:46.206Z,93.08
2019-02-12T08:57:54.282Z,91.86
2019-02-12T08:59:02.347Z,95.74
2019-02-12T09:00:10.402Z,94.70
2019-02-12T09:01:18.463Z,98.20
2019-02-12T09:02:26.575Z,94.98
2019-02-12T09:03:34.760Z,96.97
2019-02-12T09:04:42.661Z,98.68
2019-02-12T09:05:50.704Z,96.02
2019-02-12T09:06:58.759Z,99.99
2019-02-12T09:08:06.796Z,99.62
2019-02-12T09:09:14.870Z,98.77
2019-02-12T09:10:22.922Z,99.99
2019-02-12T09:11:30.972Z,99.62
2019-02-12T09:12:39.051Z,99.99
2019-02-12T09:13:47.092Z,99.99
2019-02-12T09:14:55.190Z,95.07
2019-02-12T09:16:03.196Z,96.26
2019-02-12T09:17:11.282Z,98.06
2019-02-12T09:18:19.325Z,98.06
2019-02-12T09:19:27.403Z,99.99
2019-02-12T09:20:35.438Z,99.99
2019-02-12T09:21:43.497Z,99.99
2019-02-12T09:22:51.540Z,99.99
2019-02-12T09:24:00.699Z,95.22
2019-02-12T09:25:07.685Z,99.99
2019-02-12T09:26:16.247Z,99.99
2019-02-12T09:27:23.797Z,99.99
2019-02-12T09:28:31.871Z,99.99
2019-02-12T09:29:39.970Z,99.99
2019-02-12T09:30:47.979Z,99.99
2019-02-12T09:31:56.028Z,99.99
2019-02-12T09:33:04.103Z,99.99
2019-02-12T09:34:12.137Z,99.99
2019-02-12T09:35:20.246Z,99.99
2019-02-12T09:36:28.311Z,99.99
2019-02-12T09:37:36.338Z,99.99
2019-02-12T09:38:44.395Z,99.99
2019-02-12T09:39:52.456Z,99.99
2019-02-12T09:41:00.517Z,99.99
2019-02-12T09:42:08.582Z,99.99
2019-02-12T09:43:16.640Z,99.99
2019-02-12T09:44:24.684Z,99.99
2019-02-12T09:45:32.766Z,99.99
2019-02-12T09:46:40.813Z,99.99
2019-02-12T09:47:48.866Z,99.99
2019-02-12T09:48:56.928Z,99.99
2019-02-12T09:50:04.986Z,99.99
2019-02-12T09:51:13.061Z,99.99
2019-02-12T09:52:21.110Z,99.99
2019-02-12T09:53:29.159Z,99.99
2019-02-12T09:54:37.230Z,99.99
2019-02-12T09:55:45.271Z,99.99
2019-02-12T09:56:53.345Z,99.99
2019-02-12T09:58:01.402Z,99.99
2019-02-12T09:59:09.483Z,99.99
2019-02-12T10:00:17.554Z,99.99
2019-02-12T10:01:25.630Z,99.99
2019-02-12T10:02:33.651Z,99.99
2019-02-12T10:03:41.684Z,99.99
2019-02-12T10:04:49.757Z,99.99
2019-02-12T10:05:57.831Z,99.99
2019-02-12T10:07:05.874Z,99.99
2019-02-12T10:08:13.964Z,99.99
2019-02-12T10:09:21.988Z,99.99
2019-02-12T10:10:30.073Z,99.99
2019-02-12T10:11:38.133Z,99.99
2019-02-12T10:12:46.213Z,99.99
2019-02-12T10:13:54.265Z,99.99
2019-02-12T10:15:02.304Z,99.99
2019-02-12T10:16:10.369Z,99.99
2019-02-12T10:17:18.434Z,99.99
2019-02-12T10:18:26.508Z,99.99
2019-02-12T10:19:34.556Z,99.99
2019-02-12T10:20:42.619Z,99.99
2019-02-12T10:21:50.671Z,99.99
2019-02-12T10:22:58.741Z,99.99
2019-02-12T10:24:06.864Z,99.99
2019-02-12T10:25:14.874Z,96.88
2019-02-12T10:26:23.151Z,88.24
2019-02-12T10:27:30.997Z,95.46
2019-02-12T10:28:48.364Z,92.99
2019-02-12T10:29:47.105Z,99.99
2019-02-12T10:30:55.175Z,92.90
2019-02-12T10:32:08.597Z,97.45
2019-02-12T10:33:11.275Z,98.87
2019-02-12T10:34:19.351Z,99.99
2019-02-12T10:35:27.492Z,99.99
2019-02-12T10:36:35.503Z,99.99
2019-02-12T10:37:43.538Z,99.99
2019-02-12T10:38:51.565Z,99.99
2019-02-12T10:39:59.677Z,99.99
2019-02-12T10:41:07.712Z,99.99
2019-02-12T10:42:15.780Z,99.99
2019-02-12T10:43:24.291Z,99.99
2019-02-12T10:44:31.909Z,99.99
2019-02-12T10:45:39.969Z,99.99
2019-02-12T10:46:48.021Z,99.99
2019-02-12T10:47:56.078Z,99.99
2019-02-12T10:49:04.162Z,99.99
2019-02-12T10:50:12.229Z,99.99
2019-02-12T10:51:20.271Z,99.99
2019-02-12T10:52:28.324Z,99.99
2019-02-12T10:53:36.396Z,99.99
2019-02-12T10:54:44.458Z,99.99
2019-02-12T10:55:52.603Z,99.99
2019-02-12T10:57:00.577Z,99.99
2019-02-12T10:58:08.698Z,99.99
2019-02-12T10:59:16.691Z,99.99
2019-02-12T11:00:24.763Z,99.99
2019-02-12T11:01:32.827Z,99.99
2019-02-12T11:02:40.884Z,99.99
2019-02-12T11:03:48.946Z,99.99
2019-02-12T11:04:57.016Z,99.99
2019-02-12T11:06:05.070Z,99.99
2019-02-12T11:07:13.129Z,99.99
2019-02-12T11:08:21.223Z,94.84
2019-02-12T11:09:29.260Z,92.09
2019-02-12T11:10:37.313Z,99.99
2019-02-12T11:11:45.381Z,98.35
2019-02-12T11:12:53.438Z,91.42
2019-02-12T11:14:01.593Z,95.03
2019-02-12T11:15:09.603Z,94.27
2019-02-12T11:16:17.624Z,88.20
2019-02-12T11:17:25.687Z,87.34
2019-02-12T11:18:33.743Z,83.92
2019-02-12T11:19:41.877Z,83.88
2019-02-12T11:20:49.891Z,99.99
2019-02-12T11:21:57.937Z,91.47
2019-02-12T11:23:05.998Z,87.49
2019-02-12T11:24:14.173Z,90.52
2019-02-12T11:25:22.112Z,96.31
2019-02-12T11:26:30.190Z,99.99
2019-02-12T11:27:38.247Z,99.63
2019-02-12T11:28:46.287Z,99.99
2019-02-12T11:29:54.373Z,99.99
2019-02-12T11:31:02.432Z,99.99
2019-02-12T11:32:10.513Z,99.99
2019-02-12T11:33:18.558Z,94.08
2019-02-12T11:34:26.606Z,99.99
2019-02-12T11:35:34.706Z,91.66
2019-02-12T11:36:42.747Z,94.32
2019-02-12T11:37:50.796Z,96.55
2019-02-12T11:38:58.888Z,99.99
2019-02-12T11:40:06.922Z,99.99
2019-02-12T11:41:14.996Z,99.99
2019-02-12T11:42:23.063Z,99.99
2019-02-12T11:43:31.109Z,99.99
2019-02-12T11:44:39.170Z,99.99
2019-02-12T11:45:47.231Z,99.99
2019-02-12T11:46:55.304Z,99.99
2019-02-12T11:48:03.348Z,99.77
2019-02-12T11:49:11.402Z,99.99
2019-02-12T11:50:19.502Z,94.93
2019-02-12T11:51:27.580Z,80.03
2019-02-12T11:52:35.597Z,86.34
2019-02-12T11:53:43.670Z,85.35
2019-02-12T11:54:51.704Z,86.87
2019-02-12T11:55:59.792Z,84.63
2019-02-12T11:57:07.842Z,90.99
2019-02-12T11:58:15.927Z,88.90
2019-02-12T11:59:23.982Z,86.01
2019-02-12T12:00:32.002Z,87.34
2019-02-12T12:01:40.087Z,85.91
2019-02-12T12:02:48.169Z,83.83
2019-02-12T12:03:56.205Z,91.04
2019-02-12T12:05:04.284Z,78.61
2019-02-12T12:06:12.315Z,72.81
2019-02-12T12:07:20.401Z,75.53
2019-02-12T12:08:28.480Z,75.95
2019-02-12T12:09:36.533Z,75.62
2019-02-12T12:10:44.586Z,82.84
2019-02-12T12:11:52.654Z,78.56
2019-02-12T12:13:00.698Z,77.05
2019-02-12T12:14:08.781Z,78.56
2019-02-12T12:15:16.839Z,76.10
2019-02-12T12:16:24.891Z,74.96
2019-02-12T12:17:32.956Z,82.36
2019-02-12T12:18:41.004Z,77.71
2019-02-12T12:19:49.092Z,78.38
2019-02-12T12:20:57.147Z,80.08
2019-02-12T12:22:05.204Z,83.22
2019-02-12T12:23:13.270Z,89.76
2019-02-12T12:24:21.328Z,88.43
2019-02-12T12:25:29.552Z,84.36
2019-02-12T12:26:37.441Z,84.55
2019-02-12T12:27:45.503Z,83.97
2019-02-12T12:28:53.568Z,81.70
2019-02-12T12:30:01.617Z,85.87
2019-02-12T12:31:09.693Z,84.88
2019-02-12T12:32:17.777Z,85.64
2019-02-12T12:33:25.817Z,88.20
2019-02-12T12:34:33.894Z,92.38
2019-02-12T12:35:41.911Z,88.77
2019-02-12T12:36:49.993Z,83.94
2019-02-12T12:37:58.063Z,86.11
2019-02-12T12:39:06.127Z,81.56
2019-02-12T12:40:14.177Z,82.70
2019-02-12T12:41:22.228Z,82.04
2019-02-12T12:42:30.285Z,85.55
2019-02-12T12:43:38.363Z,85.59
2019-02-12T12:44:46.412Z,85.87
2019-02-12T12:45:54.518Z,89.67
2019-02-12T12:47:02.541Z,84.45
2019-02-12T12:48:10.585Z,85.02
2019-02-12T12:49:18.656Z,75.72
2019-02-12T12:50:26.766Z,80.18
2019-02-12T12:51:34.780Z,79.23
2019-02-12T12:52:42.852Z,78.56
2019-02-12T12:53:50.903Z,78.28
2019-02-12T12:55:00.002Z,77.81
2019-02-12T12:56:07.067Z,73.54
2019-02-12T12:57:15.086Z,74.58
2019-02-12T12:58:23.127Z,74.58
2019-02-12T12:59:31.203Z,74.87
2019-02-12T13:00:39.273Z,75.05
2019-02-12T13:01:47.313Z,75.72
2019-02-12T13:02:55.392Z,79.14
2019-02-12T13:04:03.437Z,79.42
2019-02-12T13:05:11.518Z,75.62
2019-02-12T13:06:19.573Z,74.90
2019-02-12T13:07:27.634Z,74.30
2019-02-12T13:08:35.697Z,73.72
2019-02-12T13:09:43.755Z,75.91
2019-02-12T13:10:51.841Z,76.76
2019-02-12T13:11:59.893Z,78.56
2019-02-12T13:13:07.933Z,77.71
2019-02-12T13:14:15.985Z,74.01
2019-02-12T13:15:24.079Z,75.91
2019-02-12T13:16:32.101Z,77.43
2019-02-12T13:17:40.191Z,75.72
2019-02-12T13:18:48.237Z,72.59
2019-02-12T13:19:56.284Z,74.96
2019-02-12T13:21:04.474Z,75.05
2019-02-12T13:22:12.408Z,71.64
2019-02-12T13:23:20.515Z,72.49
2019-02-12T13:24:28.587Z,74.11
2019-02-12T13:25:36.585Z,74.58
2019-02-12T13:26:44.825Z,78.56
2019-02-12T13:27:52.728Z,80.56
2019-02-12T13:29:00.780Z,74.39
2019-02-12T13:30:08.847Z,75.76
2019-02-12T13:31:16.901Z,76.76
2019-02-12T13:32:24.971Z,74.81
2019-02-12T13:33:33.029Z,74.62
2019-02-12T13:34:41.097Z,72.63
2019-02-12T13:35:49.161Z,69.96
2019-02-12T13:36:57.198Z,74.01
2019-02-12T13:38:05.273Z,75.81
2019-02-12T13:39:13.316Z,77.24
2019-02-12T13:40:21.369Z,78.03
2019-02-12T13:41:29.450Z,78.70
2019-02-12T13:42:37.503Z,78.61
2019-02-12T13:43:45.568Z,78.13
2019-02-12T13:44:53.632Z,76.32
2019-02-12T13:46:01.677Z,76.14
2019-02-12T13:47:09.782Z,72.91
2019-02-12T13:48:17.800Z,76.39
2019-02-12T13:49:26.003Z,78.28
2019-02-12T13:50:33.940Z,73.72
2019-02-12T13:51:41.999Z,75.43
2019-02-12T13:52:50.064Z,76.76
2019-02-12T13:53:58.129Z,73.72
2019-02-12T13:55:06.175Z,75.34
2019-02-12T13:56:14.227Z,73.92
2019-02-12T13:57:22.282Z,75.05
2019-02-12T13:58:30.382Z,76.67
2019-02-12T13:59:38.407Z,75.15
2019-02-12T14:00:46.480Z,75.40
2019-02-12T14:01:54.541Z,79.14
2019-02-12T14:03:02.599Z,81.47
2019-02-12T14:04:10.729Z,84.88
2019-02-12T14:05:19.059Z,81.70
2019-02-12T14:06:26.792Z,84.03
2019-02-12T14:07:34.853Z,82.60
2019-02-12T14:08:42.901Z,83.08
2019-02-12T14:09:50.974Z,79.71
2019-02-12T14:10:59.028Z,79.42
2019-02-12T14:12:07.084Z,77.11
2019-02-12T14:13:15.152Z,78.05
2019-02-12T14:14:23.222Z,79.76
2019-02-12T14:15:31.271Z,81.32
2019-02-12T14:16:39.344Z,79.28
2019-02-12T14:17:47.393Z,74.26
2019-02-12T14:18:55.440Z,77.96
2019-02-12T14:20:03.546Z,76.73
2019-02-12T14:21:11.532Z,78.24
2019-02-12T14:22:19.621Z,80.71
2019-02-12T14:23:27.706Z,78.34
2019-02-12T14:24:35.746Z,80.71
2019-02-12T14:25:43.798Z,82.04
2019-02-12T14:26:51.851Z,80.62
2019-02-12T14:27:59.927Z,79.38
2019-02-12T14:29:08.003Z,81.56
2019-02-12T14:30:16.031Z,81.47
2019-02-12T14:31:24.093Z,84.88
2019-02-12T14:32:32.137Z,84.69
2019-02-12T14:33:40.211Z,80.90
2019-02-12T14:34:48.288Z,81.85
2019-02-12T14:35:56.339Z,77.48